sensor_id;sensor_type;location;lat;lon;timestamp;pressure;altitude;pressure_sealevel;temperature;humidity
63554;BME280;49699;48.072;7.800;2022-09-12T00:00:28;99490.78;;;13.13;81.69
63554;BME280;49699;48.072;7.800;2022-09-12T00:02:56;99482.31;;;13.10;81.63
63554;BME280;49699;48.072;7.800;2022-09-12T00:05:22;99487.78;;;13.07;81.78
63554;BME280;49699;48.072;7.800;2022-09-12T00:07:48;99483.69;;;13.03;81.92
63554;BME280;49699;48.072;7.800;2022-09-12T00:10:14;99482.84;;;13.02;81.83
63554;BME280;49699;48.072;7.800;2022-09-12T00:12:40;99479.50;;;13.00;81.81
63554;BME280;49699;48.072;7.800;2022-09-12T00:15:06;99472.78;;;12.96;81.86
63554;BME280;49699;48.072;7.800;2022-09-12T00:17:35;99474.03;;;12.91;82.03
63554;BME280;49699;48.072;7.800;2022-09-12T00:20:02;99475.28;;;12.85;81.88
63554;BME280;49699;48.072;7.800;2022-09-12T00:22:28;99477.25;;;12.81;82.25
63554;BME280;49699;48.072;7.800;2022-09-12T00:24:53;99481.75;;;12.79;82.30
63554;BME280;49699;48.072;7.800;2022-09-12T00:27:19;99481.00;;;12.77;82.62
63554;BME280;49699;48.072;7.800;2022-09-12T00:29:44;99482.13;;;12.73;82.50
63554;BME280;49699;48.072;7.800;2022-09-12T00:32:10;99484.75;;;12.73;82.43
63554;BME280;49699;48.072;7.800;2022-09-12T00:34:35;99476.91;;;12.73;82.45
63554;BME280;49699;48.072;7.800;2022-09-12T00:37:01;99480.19;;;12.77;82.25
63554;BME280;49699;48.072;7.800;2022-09-12T00:39:27;99478.41;;;12.77;82.36
63554;BME280;49699;48.072;7.800;2022-09-12T00:41:52;99480.19;;;12.77;82.30
63554;BME280;49699;48.072;7.800;2022-09-12T00:49:26;99477.53;;;12.64;82.54
63554;BME280;49699;48.072;7.800;2022-09-12T00:52:04;99485.47;;;12.63;82.62
63554;BME280;49699;48.072;7.800;2022-09-12T00:57:17;99474.66;;;12.55;82.70
63554;BME280;49699;48.072;7.800;2022-09-12T01:00:15;99471.13;;;12.56;82.59
63554;BME280;49699;48.072;7.800;2022-09-12T01:02:55;99471.97;;;12.56;82.55
63554;BME280;49699;48.072;7.800;2022-09-12T01:05:21;99475.72;;;12.52;82.71
63554;BME280;49699;48.072;7.800;2022-09-12T01:07:47;99466.31;;;12.49;82.84
63554;BME280;49699;48.072;7.800;2022-09-12T01:10:14;99473.31;;;12.49;82.67
63554;BME280;49699;48.072;7.800;2022-09-12T01:12:41;99467.34;;;12.47;82.63
63554;BME280;49699;48.072;7.800;2022-09-12T01:15:08;99467.34;;;12.47;82.85
63554;BME280;49699;48.072;7.800;2022-09-12T01:17:53;99467.34;;;12.47;82.70
63554;BME280;49699;48.072;7.800;2022-09-12T01:29:18;99464.28;;;12.40;82.76
63554;BME280;49699;48.072;7.800;2022-09-12T01:32:03;99462.63;;;12.39;82.64
63554;BME280;49699;48.072;7.800;2022-09-12T01:34:51;99462.94;;;12.35;82.70
63554;BME280;49699;48.072;7.800;2022-09-12T01:37:31;99460.63;;;12.30;82.84
63554;BME280;49699;48.072;7.800;2022-09-12T01:42:51;99454.94;;;12.24;82.96
63554;BME280;49699;48.072;7.800;2022-09-12T01:45:24;99449.16;;;12.18;82.76
63554;BME280;49699;48.072;7.800;2022-09-12T01:48:06;99447.72;;;12.14;82.91
63554;BME280;49699;48.072;7.800;2022-09-12T01:50:41;99446.31;;;12.09;82.87
63554;BME280;49699;48.072;7.800;2022-09-12T01:53:17;99444.75;;;12.06;83.13
63554;BME280;49699;48.072;7.800;2022-09-12T01:55:48;99443.91;;;12.06;83.00
63554;BME280;49699;48.072;7.800;2022-09-12T01:58:21;99438.03;;;12.02;83.07
63554;BME280;49699;48.072;7.800;2022-09-12T02:00:52;99438.25;;;11.99;83.40
63554;BME280;49699;48.072;7.800;2022-09-12T02:03:23;99435.84;;;11.96;83.36
63554;BME280;49699;48.072;7.800;2022-09-12T02:05:56;99430.72;;;11.95;83.22
63554;BME280;49699;48.072;7.800;2022-09-12T02:08:27;99428.09;;;11.95;83.09
63554;BME280;49699;48.072;7.800;2022-09-12T02:11:01;99429.13;;;11.92;83.34
63554;BME280;49699;48.072;7.800;2022-09-12T02:13:35;99419.81;;;11.88;83.39
63554;BME280;49699;48.072;7.800;2022-09-12T02:16:09;99415.94;;;11.81;83.42
63554;BME280;49699;48.072;7.800;2022-09-12T02:18:38;99415.53;;;11.73;83.61
63554;BME280;49699;48.072;7.800;2022-09-12T02:21:05;99410.78;;;11.65;83.79
63554;BME280;49699;48.072;7.800;2022-09-12T02:23:32;99418.28;;;11.57;83.89
63554;BME280;49699;48.072;7.800;2022-09-12T02:26:24;99421.44;;;11.48;83.86
63554;BME280;49699;48.072;7.800;2022-09-12T02:28:53;99421.00;;;11.41;84.21
63554;BME280;49699;48.072;7.800;2022-09-12T02:31:46;99417.91;;;11.35;84.15
63554;BME280;49699;48.072;7.800;2022-09-12T02:34:25;99419.09;;;11.29;84.09
63554;BME280;49699;48.072;7.800;2022-09-12T02:39:58;99425.63;;;11.22;84.42
63554;BME280;49699;48.072;7.800;2022-09-12T02:42:24;99430.09;;;11.20;84.57
63554;BME280;49699;48.072;7.800;2022-09-12T02:44:51;99429.25;;;11.20;84.31
63554;BME280;49699;48.072;7.800;2022-09-12T02:47:26;99430.19;;;11.19;84.62
63554;BME280;49699;48.072;7.800;2022-09-12T02:49:53;99434.75;;;11.15;84.49
63554;BME280;49699;48.072;7.800;2022-09-12T02:52:19;99429.53;;;11.15;84.50
63554;BME280;49699;48.072;7.800;2022-09-12T02:54:45;99432.97;;;11.16;84.51
63554;BME280;49699;48.072;7.800;2022-09-12T02:57:19;99428.59;;;11.16;84.58
63554;BME280;49699;48.072;7.800;2022-09-12T02:59:46;99430.28;;;11.17;84.32
63554;BME280;49699;48.072;7.800;2022-09-12T03:10:54;99428.69;;;11.14;84.29
63554;BME280;49699;48.072;7.800;2022-09-12T03:22:35;99424.63;;;11.25;84.04
63554;BME280;49699;48.072;7.800;2022-09-12T03:25:16;99418.66;;;11.23;83.69
63554;BME280;49699;48.072;7.800;2022-09-12T03:28:04;99429.34;;;11.18;84.28
63554;BME280;49699;48.072;7.800;2022-09-12T03:30:39;99431.38;;;11.13;84.19
63554;BME280;49699;48.072;7.800;2022-09-12T03:33:10;99426.25;;;11.11;84.15
63554;BME280;49699;48.072;7.800;2022-09-12T03:35:35;99427.94;;;11.12;84.43
63554;BME280;49699;48.072;7.800;2022-09-12T03:38:01;99416.59;;;11.13;83.99
63554;BME280;49699;48.072;7.800;2022-09-12T03:40:26;99421.72;;;11.15;83.86
63554;BME280;49699;48.072;7.800;2022-09-12T03:42:52;99419.41;;;11.10;83.93
63554;BME280;49699;48.072;7.800;2022-09-12T03:45:17;99417.81;;;11.08;84.05
63554;BME280;49699;48.072;7.800;2022-09-12T03:47:43;99417.81;;;11.08;84.20
63554;BME280;49699;48.072;7.800;2022-09-12T03:50:08;99412.63;;;11.08;84.16
63554;BME280;49699;48.072;7.800;2022-09-12T03:52:34;99414.38;;;11.07;83.99
63554;BME280;49699;48.072;7.800;2022-09-12T03:54:59;99419.59;;;11.07;83.86
63554;BME280;49699;48.072;7.800;2022-09-12T03:57:25;99422.28;;;11.06;84.26
63554;BME280;49699;48.072;7.800;2022-09-12T03:59:50;99424.97;;;11.04;83.83
63554;BME280;49699;48.072;7.800;2022-09-12T04:02:16;99420.88;;;11.00;84.44
63554;BME280;49699;48.072;7.800;2022-09-12T04:04:42;99419.00;;;11.02;84.06
63554;BME280;49699;48.072;7.800;2022-09-12T04:07:09;99422.53;;;11.01;84.07
63554;BME280;49699;48.072;7.800;2022-09-12T04:09:34;99414.06;;;10.98;84.12
63554;BME280;49699;48.072;7.800;2022-09-12T04:12:00;99408.88;;;10.98;84.22
63554;BME280;49699;48.072;7.800;2022-09-12T04:14:25;99409.78;;;10.97;84.26
63554;BME280;49699;48.072;7.800;2022-09-12T04:16:50;99414.06;;;10.98;84.18
63554;BME280;49699;48.072;7.800;2022-09-12T04:19:16;99411.56;;;10.96;84.33
63554;BME280;49699;48.072;7.800;2022-09-12T04:21:41;99411.56;;;10.96;84.34
63554;BME280;49699;48.072;7.800;2022-09-12T04:24:07;99409.97;;;10.94;83.94
63554;BME280;49699;48.072;7.800;2022-09-12T04:26:32;99412.78;;;10.91;84.04
63554;BME280;49699;48.072;7.800;2022-09-12T04:28:58;99404.22;;;10.89;84.36
63554;BME280;49699;48.072;7.800;2022-09-12T04:31:24;99410.44;;;10.86;83.96
63554;BME280;49699;48.072;7.800;2022-09-12T04:33:57;99413.03;;;10.86;84.00
63554;BME280;49699;48.072;7.800;2022-09-12T04:36:24;99410.63;;;10.83;84.24
63554;BME280;49699;48.072;7.800;2022-09-12T04:38:50;99408.94;;;10.82;84.26
63554;BME280;49699;48.072;7.800;2022-09-12T04:41:24;99402.06;;;10.81;84.20
63554;BME280;49699;48.072;7.800;2022-09-12T04:43:55;99413.31;;;10.82;83.99
63554;BME280;49699;48.072;7.800;2022-09-12T04:46:29;99416.84;;;10.81;84.17
63554;BME280;49699;48.072;7.800;2022-09-12T04:48:55;99412.66;;;10.78;84.24
63554;BME280;49699;48.072;7.800;2022-09-12T04:51:26;99417.00;;;10.77;84.30
63554;BME280;49699;48.072;7.800;2022-09-12T04:53:55;99418.78;;;10.77;84.23
63554;BME280;49699;48.072;7.800;2022-09-12T04:56:21;99410.34;;;10.73;84.37
63554;BME280;49699;48.072;7.800;2022-09-12T04:58:47;99417.31;;;10.73;84.20
63554;BME280;49699;48.072;7.800;2022-09-12T05:01:18;99410.50;;;10.70;84.07
63554;BME280;49699;48.072;7.800;2022-09-12T05:03:45;99414.13;;;10.68;84.25
63554;BME280;49699;48.072;7.800;2022-09-12T05:06:16;99413.38;;;10.66;84.40
63554;BME280;49699;48.072;7.800;2022-09-12T05:08:43;99409.94;;;10.65;84.43
63554;BME280;49699;48.072;7.800;2022-09-12T05:11:14;99402.97;;;10.66;84.17
63554;BME280;49699;48.072;7.800;2022-09-12T05:13:40;99409.09;;;10.65;84.55
63554;BME280;49699;48.072;7.800;2022-09-12T05:16:06;99405.56;;;10.66;84.27
63554;BME280;49699;48.072;7.800;2022-09-12T05:18:34;99402.88;;;10.67;84.40
63554;BME280;49699;48.072;7.800;2022-09-12T05:21:01;99401.94;;;10.68;84.35
63554;BME280;49699;48.072;7.800;2022-09-12T05:23:27;99395.06;;;10.67;84.19
63554;BME280;49699;48.072;7.800;2022-09-12T05:25:55;99396.75;;;10.68;84.17
63554;BME280;49699;48.072;7.800;2022-09-12T05:28:22;99397.50;;;10.70;84.11
63554;BME280;49699;48.072;7.800;2022-09-12T05:31:08;99397.31;;;10.73;84.00
63554;BME280;49699;48.072;7.800;2022-09-12T05:33:36;99401.47;;;10.76;83.54
63554;BME280;49699;48.072;7.800;2022-09-12T05:36:04;99395.34;;;10.77;83.85
63554;BME280;49699;48.072;7.800;2022-09-12T05:38:33;99389.88;;;10.82;83.61
63554;BME280;49699;48.072;7.800;2022-09-12T05:41:03;99393.97;;;10.86;83.42
63554;BME280;49699;48.072;7.800;2022-09-12T05:43:31;99404.97;;;10.91;83.43
63554;BME280;49699;48.072;7.800;2022-09-12T05:46:05;99397.44;;;11.00;82.87
63554;BME280;49699;48.072;7.800;2022-09-12T05:48:35;99401.19;;;11.10;82.51
63554;BME280;49699;48.072;7.800;2022-09-12T05:51:03;99399.59;;;11.22;82.52
63554;BME280;49699;48.072;7.800;2022-09-12T05:53:30;99406.75;;;11.33;82.00
63554;BME280;49699;48.072;7.800;2022-09-12T05:56:07;99409.31;;;11.47;81.61
63554;BME280;49699;48.072;7.800;2022-09-12T05:58:34;99411.84;;;11.63;81.09
63554;BME280;49699;48.072;7.800;2022-09-12T06:01:18;99412.69;;;11.77;80.60
63554;BME280;49699;48.072;7.800;2022-09-12T06:03:46;99408.28;;;11.92;80.27
63554;BME280;49699;48.072;7.800;2022-09-12T06:06:13;99415.94;;;12.08;79.83
63554;BME280;49699;48.072;7.800;2022-09-12T06:08:41;99408.91;;;12.23;79.30
63554;BME280;49699;48.072;7.800;2022-09-12T06:11:08;99406.78;;;12.42;78.86
63554;BME280;49699;48.072;7.800;2022-09-12T06:13:35;99414.88;;;12.64;78.32
63554;BME280;49699;48.072;7.800;2022-09-12T06:16:06;99417.72;;;12.86;77.72
63554;BME280;49699;48.072;7.800;2022-09-12T06:18:36;99426.59;;;13.09;77.13
63554;BME280;49699;48.072;7.800;2022-09-12T06:21:09;99426.00;;;13.31;76.67
63554;BME280;49699;48.072;7.800;2022-09-12T06:23:36;99431.75;;;13.49;76.23
63554;BME280;49699;48.072;7.800;2022-09-12T06:26:02;99435.06;;;13.64;75.76
63554;BME280;49699;48.072;7.800;2022-09-12T06:28:28;99437.31;;;13.81;75.56
63554;BME280;49699;48.072;7.800;2022-09-12T06:31:01;99435.44;;;13.96;75.01
63554;BME280;49699;48.072;7.800;2022-09-12T06:33:29;99430.13;;;14.08;74.67
63554;BME280;49699;48.072;7.800;2022-09-12T06:36:04;99439.38;;;14.25;74.15
63554;BME280;49699;48.072;7.800;2022-09-12T06:38:31;99440.28;;;14.37;73.83
63554;BME280;49699;48.072;7.800;2022-09-12T06:40:56;99438.59;;;14.48;73.68
63554;BME280;49699;48.072;7.800;2022-09-12T06:43:22;99441.34;;;14.58;73.64
63554;BME280;49699;48.072;7.800;2022-09-12T06:45:48;99433.66;;;14.68;73.42
63554;BME280;49699;48.072;7.800;2022-09-12T06:48:14;99443.66;;;14.74;73.20
63554;BME280;49699;48.072;7.800;2022-09-12T06:50:39;99445.00;;;14.79;73.24
63554;BME280;49699;48.072;7.800;2022-09-12T06:53:06;99436.53;;;14.87;73.06
63554;BME280;49699;48.072;7.800;2022-09-12T06:55:31;99446.13;;;14.99;72.80
63554;BME280;49699;48.072;7.800;2022-09-12T06:57:58;99428.75;;;15.09;72.39
63554;BME280;49699;48.072;7.800;2022-09-12T07:00:23;99425.88;;;15.23;72.47
63554;BME280;49699;48.072;7.800;2022-09-12T07:02:53;99420.78;;;15.33;72.08
63554;BME280;49699;48.072;7.800;2022-09-12T07:05:18;99424.22;;;15.45;71.89
63554;BME280;49699;48.072;7.800;2022-09-12T07:07:44;99421.41;;;15.59;71.41
63554;BME280;49699;48.072;7.800;2022-09-12T07:10:09;99425.34;;;15.76;71.06
63554;BME280;49699;48.072;7.800;2022-09-12T07:12:36;99421.50;;;15.91;70.49
63554;BME280;49699;48.072;7.800;2022-09-12T07:15:02;99421.94;;;16.07;70.22
63554;BME280;49699;48.072;7.800;2022-09-12T07:17:27;99424.88;;;16.25;69.41
63554;BME280;49699;48.072;7.800;2022-09-12T07:19:53;99417.41;;;16.41;68.75
63554;BME280;49699;48.072;7.800;2022-09-12T07:22:18;99418.41;;;16.61;68.09
63554;BME280;49699;48.072;7.800;2022-09-12T07:24:43;99410.47;;;16.72;67.53
63554;BME280;49699;48.072;7.800;2022-09-12T07:27:10;99414.56;;;16.86;67.28
63554;BME280;49699;48.072;7.800;2022-09-12T07:29:35;99413.56;;;16.98;66.63
63554;BME280;49699;48.072;7.800;2022-09-12T07:32:01;99410.84;;;17.09;66.01
63554;BME280;49699;48.072;7.800;2022-09-12T07:34:26;99433.06;;;17.16;65.68
63554;BME280;49699;48.072;7.800;2022-09-12T07:36:52;99419.22;;;17.24;65.79
63554;BME280;49699;48.072;7.800;2022-09-12T07:39:17;99413.22;;;17.43;65.06
63554;BME280;49699;48.072;7.800;2022-09-12T07:41:43;99411.50;;;17.62;64.49
63554;BME280;49699;48.072;7.800;2022-09-12T07:44:08;99416.03;;;17.81;63.79
63554;BME280;49699;48.072;7.800;2022-09-12T07:46:35;99411.63;;;18.01;63.48
63554;BME280;49699;48.072;7.800;2022-09-12T07:49:01;99405.84;;;18.17;62.92
63554;BME280;49699;48.072;7.800;2022-09-12T07:51:28;99407.22;;;18.30;62.63
63554;BME280;49699;48.072;7.800;2022-09-12T07:53:54;99402.53;;;18.44;62.21
63554;BME280;49699;48.072;7.800;2022-09-12T07:56:20;99405.16;;;18.53;62.04
63554;BME280;49699;48.072;7.800;2022-09-12T07:58:46;99397.13;;;18.64;61.87
63554;BME280;49699;48.072;7.800;2022-09-12T08:01:17;99403.22;;;18.75;61.61
63554;BME280;49699;48.072;7.800;2022-09-12T08:03:44;99404.72;;;18.87;61.43
63554;BME280;49699;48.072;7.800;2022-09-12T08:06:13;99399.88;;;18.92;61.23
63554;BME280;49699;48.072;7.800;2022-09-12T08:08:39;99402.38;;;18.93;61.25
63554;BME280;49699;48.072;7.800;2022-09-12T08:11:10;99402.47;;;19.01;60.94
63554;BME280;49699;48.072;7.800;2022-09-12T08:13:37;99403.72;;;19.17;60.68
63554;BME280;49699;48.072;7.800;2022-09-12T08:16:08;99392.91;;;19.37;59.97
63554;BME280;49699;48.072;7.800;2022-09-12T08:18:36;99404.53;;;19.54;59.58
63554;BME280;49699;48.072;7.800;2022-09-12T08:21:06;99401.38;;;19.78;59.10
63554;BME280;49699;48.072;7.800;2022-09-12T08:23:32;99402.09;;;19.98;58.47
63554;BME280;49699;48.072;7.800;2022-09-12T08:26:00;99400.34;;;20.06;58.14
63554;BME280;49699;48.072;7.800;2022-09-12T08:28:28;99404.91;;;20.14;57.98
63554;BME280;49699;48.072;7.800;2022-09-12T08:30:53;99398.25;;;20.28;57.68
63554;BME280;49699;48.072;7.800;2022-09-12T08:33:24;99399.25;;;20.44;57.03
63554;BME280;49699;48.072;7.800;2022-09-12T08:35:51;99394.28;;;20.59;56.59
63554;BME280;49699;48.072;7.800;2022-09-12T08:38:16;99404.22;;;20.65;56.20
63554;BME280;49699;48.072;7.800;2022-09-12T08:41:00;99402.72;;;20.63;56.35
63554;BME280;49699;48.072;7.800;2022-09-12T08:46:23;99404.91;;;20.67;56.22
63554;BME280;49699;48.072;7.800;2022-09-12T08:48:51;99410.97;;;20.77;55.83
63554;BME280;49699;48.072;7.800;2022-09-12T08:51:19;99410.81;;;21.05;55.22
63554;BME280;49699;48.072;7.800;2022-09-12T08:53:46;99404.53;;;21.32;54.46
63554;BME280;49699;48.072;7.800;2022-09-12T08:56:13;99405.28;;;21.50;54.29
63554;BME280;49699;48.072;7.800;2022-09-12T08:58:42;99404.16;;;21.53;54.24
63554;BME280;49699;48.072;7.800;2022-09-12T09:06:54;99391.53;;;21.80;53.69
63554;BME280;49699;48.072;7.800;2022-09-12T09:09:51;99389.88;;;21.88;52.20
63554;BME280;49699;48.072;7.800;2022-09-12T09:12:30;99384.50;;;21.63;53.12
63554;BME280;49699;48.072;7.800;2022-09-12T09:18:09;99384.19;;;21.66;52.81
63554;BME280;49699;48.072;7.800;2022-09-12T09:20:52;99380.72;;;21.74;52.40
63554;BME280;49699;48.072;7.800;2022-09-12T09:23:39;99381.28;;;21.94;52.21
63554;BME280;49699;48.072;7.800;2022-09-12T09:28:48;99372.25;;;22.29;51.00
63554;BME280;49699;48.072;7.800;2022-09-12T09:31:19;99370.94;;;22.41;50.67
63554;BME280;49699;48.072;7.800;2022-09-12T09:33:47;99370.78;;;22.50;50.11
63554;BME280;49699;48.072;7.800;2022-09-12T09:36:19;99375.75;;;22.54;49.72
63554;BME280;49699;48.072;7.800;2022-09-12T09:38:47;99371.94;;;22.48;50.13
63554;BME280;49699;48.072;7.800;2022-09-12T09:44:27;99367.28;;;22.17;50.58
63554;BME280;49699;48.072;7.800;2022-09-12T09:46:54;99368.28;;;22.16;50.85
63554;BME280;49699;48.072;7.800;2022-09-12T09:49:22;99365.16;;;22.21;50.73
63554;BME280;49699;48.072;7.800;2022-09-12T09:51:50;99363.81;;;22.41;50.33
63554;BME280;49699;48.072;7.800;2022-09-12T09:56:47;99357.50;;;22.67;50.07
63554;BME280;49699;48.072;7.800;2022-09-12T09:59:19;99357.69;;;22.81;49.59
63554;BME280;49699;48.072;7.800;2022-09-12T10:01:58;99357.81;;;23.04;49.19
63554;BME280;49699;48.072;7.800;2022-09-12T10:04:35;99353.63;;;23.18;48.43
63554;BME280;49699;48.072;7.800;2022-09-12T10:07:04;99352.47;;;23.12;48.32
63554;BME280;49699;48.072;7.800;2022-09-12T10:09:34;99347.66;;;23.16;48.15
63554;BME280;49699;48.072;7.800;2022-09-12T10:12:19;99348.47;;;23.25;47.95
63554;BME280;49699;48.072;7.800;2022-09-12T10:15:03;99341.13;;;23.35;47.62
63554;BME280;49699;48.072;7.800;2022-09-12T10:17:44;99339.28;;;23.43;47.37
63554;BME280;49699;48.072;7.800;2022-09-12T10:25:46;99335.81;;;23.74;46.62
63554;BME280;49699;48.072;7.800;2022-09-12T10:28:22;99334.97;;;23.81;46.32
63554;BME280;49699;48.072;7.800;2022-09-12T10:30:52;99329.44;;;23.83;46.47
63554;BME280;49699;48.072;7.800;2022-09-12T10:33:18;99329.25;;;23.84;46.27
63554;BME280;49699;48.072;7.800;2022-09-12T10:35:47;99327.91;;;23.88;45.91
63554;BME280;49699;48.072;7.800;2022-09-12T10:38:21;99328.41;;;23.92;45.80
63554;BME280;49699;48.072;7.800;2022-09-12T10:40:55;99326.75;;;23.91;45.37
63554;BME280;49699;48.072;7.800;2022-09-12T10:43:34;99327.59;;;23.83;45.29
63554;BME280;49699;48.072;7.800;2022-09-12T10:46:21;99319.69;;;23.75;45.33
63554;BME280;49699;48.072;7.800;2022-09-12T10:48:49;99325.97;;;23.82;45.16
63554;BME280;49699;48.072;7.800;2022-09-12T10:53:51;99320.78;;;23.89;45.53
63554;BME280;49699;48.072;7.800;2022-09-12T10:56:21;99319.41;;;23.93;45.14
63554;BME280;49699;48.072;7.800;2022-09-12T11:01:47;99324.38;;;23.96;45.17
63554;BME280;49699;48.072;7.800;2022-09-12T11:04:18;99315.50;;;24.04;44.82
63554;BME280;49699;48.072;7.800;2022-09-12T11:07:13;99317.81;;;24.07;44.64
63554;BME280;49699;48.072;7.800;2022-09-12T11:09:47;99318.16;;;24.04;44.50
63554;BME280;49699;48.072;7.800;2022-09-12T11:18:14;99305.13;;;24.40;43.27
63554;BME280;49699;48.072;7.800;2022-09-12T11:21:02;99299.44;;;24.43;42.88
63554;BME280;49699;48.072;7.800;2022-09-12T11:24:16;99299.78;;;24.40;42.65
63554;BME280;49699;48.072;7.800;2022-09-12T11:34:07;99297.91;;;24.48;42.53
63554;BME280;49699;48.072;7.800;2022-09-12T11:36:57;99292.50;;;24.56;42.55
63554;BME280;49699;48.072;7.800;2022-09-12T11:39:37;99288.75;;;24.66;42.41
63554;BME280;49699;48.072;7.800;2022-09-12T11:42:08;99276.75;;;24.70;42.00
63554;BME280;49699;48.072;7.800;2022-09-12T11:44:40;99276.09;;;24.68;41.94
63554;BME280;49699;48.072;7.800;2022-09-12T11:47:11;99278.28;;;24.64;41.71
63554;BME280;49699;48.072;7.800;2022-09-12T11:49:55;99258.19;;;24.62;41.93
63554;BME280;49699;48.072;7.800;2022-09-12T11:52:23;99266.19;;;24.62;41.38
63554;BME280;49699;48.072;7.800;2022-09-12T11:55:15;99258.72;;;24.57;41.23
63554;BME280;49699;48.072;7.800;2022-09-12T11:57:50;99255.53;;;24.62;41.09
63554;BME280;49699;48.072;7.800;2022-09-12T12:00:48;99246.25;;;24.72;40.75
63554;BME280;49699;48.072;7.800;2022-09-12T12:03:31;99245.00;;;24.83;40.38
63554;BME280;49699;48.072;7.800;2022-09-12T12:06:18;99249.69;;;24.96;40.39
63554;BME280;49699;48.072;7.800;2022-09-12T12:08:46;99238.53;;;24.92;40.16
63554;BME280;49699;48.072;7.800;2022-09-12T12:11:15;99235.16;;;24.83;40.11
63554;BME280;49699;48.072;7.800;2022-09-12T12:13:53;99231.84;;;24.81;40.35
63554;BME280;49699;48.072;7.800;2022-09-12T12:16:26;99234.97;;;24.85;39.94
63554;BME280;49699;48.072;7.800;2022-09-12T12:18:54;99240.94;;;24.87;39.90
63554;BME280;49699;48.072;7.800;2022-09-12T12:21:39;99235.44;;;24.88;40.00
63554;BME280;49699;48.072;7.800;2022-09-12T12:34:30;99228.72;;;24.92;38.71
63554;BME280;49699;48.072;7.800;2022-09-12T12:36:55;99228.38;;;24.96;38.88
63554;BME280;49699;48.072;7.800;2022-09-12T12:41:56;99226.47;;;25.04;38.79
63554;BME280;49699;48.072;7.800;2022-09-12T12:44:47;99216.88;;;25.10;38.90
63554;BME280;49699;48.072;7.800;2022-09-12T12:47:27;99206.88;;;25.12;38.44
63554;BME280;49699;48.072;7.800;2022-09-12T12:49:58;99212.38;;;25.10;38.45
63554;BME280;49699;48.072;7.800;2022-09-12T12:52:28;99204.66;;;25.15;38.56
63554;BME280;49699;48.072;7.800;2022-09-12T12:54:57;99202.09;;;25.22;38.78
63554;BME280;49699;48.072;7.800;2022-09-12T12:57:28;99197.22;;;25.25;38.82
63554;BME280;49699;48.072;7.800;2022-09-12T13:00:00;99204.06;;;25.35;38.88
63554;BME280;49699;48.072;7.800;2022-09-12T13:02:30;99200.03;;;25.39;38.87
63554;BME280;49699;48.072;7.800;2022-09-12T13:04:58;99192.28;;;25.44;38.74
63554;BME280;49699;48.072;7.800;2022-09-12T13:07:31;99188.91;;;25.35;38.61
63554;BME280;49699;48.072;7.800;2022-09-12T13:09:59;99186.81;;;25.31;38.78
63554;BME280;49699;48.072;7.800;2022-09-12T13:12:45;99177.69;;;25.40;38.84
63554;BME280;49699;48.072;7.800;2022-09-12T13:18:18;99189.81;;;25.64;38.98
63554;BME280;49699;48.072;7.800;2022-09-12T13:21:08;99189.25;;;25.68;38.87
63554;BME280;49699;48.072;7.800;2022-09-12T13:23:35;99187.31;;;25.77;38.60
63554;BME280;49699;48.072;7.800;2022-09-12T13:26:02;99188.44;;;25.89;38.17
63554;BME280;49699;48.072;7.800;2022-09-12T13:28:29;99183.16;;;25.96;37.91
63554;BME280;49699;48.072;7.800;2022-09-12T13:31:24;99181.53;;;26.01;37.47
63554;BME280;49699;48.072;7.800;2022-09-12T13:33:54;99176.03;;;26.03;37.52
63554;BME280;49699;48.072;7.800;2022-09-12T13:41:38;99167.81;;;25.98;37.35
63554;BME280;49699;48.072;7.800;2022-09-12T13:44:13;99162.25;;;25.99;37.18
63554;BME280;49699;48.072;7.800;2022-09-12T13:46:40;99160.84;;;26.03;36.90
63554;BME280;49699;48.072;7.800;2022-09-12T13:49:22;99157.16;;;26.04;36.16
63554;BME280;49699;48.072;7.800;2022-09-12T13:52:17;99159.63;;;26.06;36.41
63554;BME280;49699;48.072;7.800;2022-09-12T13:54:46;99163.31;;;26.05;36.25
63554;BME280;49699;48.072;7.800;2022-09-12T13:57:45;99150.44;;;26.08;36.14
63554;BME280;49699;48.072;7.800;2022-09-12T14:00:19;99151.69;;;26.12;36.13
63554;BME280;49699;48.072;7.800;2022-09-12T14:02:46;99155.19;;;26.13;34.92
63554;BME280;49699;48.072;7.800;2022-09-12T14:05:21;99151.44;;;26.07;34.58
63554;BME280;49699;48.072;7.800;2022-09-12T14:07:55;99141.97;;;26.05;34.82
63554;BME280;49699;48.072;7.800;2022-09-12T14:10:25;99127.63;;;26.06;34.64
63554;BME280;49699;48.072;7.800;2022-09-12T14:12:53;99127.06;;;26.10;34.48
63554;BME280;49699;48.072;7.800;2022-09-12T14:15:26;99134.47;;;26.15;34.02
63554;BME280;49699;48.072;7.800;2022-09-12T14:17:55;99131.41;;;26.18;33.56
63554;BME280;49699;48.072;7.800;2022-09-12T14:20:26;99131.84;;;26.21;33.18
63554;BME280;49699;48.072;7.800;2022-09-12T14:22:58;99125.69;;;26.21;33.16
63554;BME280;49699;48.072;7.800;2022-09-12T14:25:25;99119.91;;;26.17;33.04
63554;BME280;49699;48.072;7.800;2022-09-12T14:27:55;99118.47;;;26.15;33.55
63554;BME280;49699;48.072;7.800;2022-09-12T14:30:25;99116.81;;;26.14;33.38
63554;BME280;49699;48.072;7.800;2022-09-12T14:36:08;99112.53;;;26.19;33.28
63554;BME280;49699;48.072;7.800;2022-09-12T14:38:39;99114.22;;;26.27;33.51
63554;BME280;49699;48.072;7.800;2022-09-12T14:41:08;99108.16;;;26.33;33.09
63554;BME280;49699;48.072;7.800;2022-09-12T14:43:36;99109.28;;;26.24;32.53
63554;BME280;49699;48.072;7.800;2022-09-12T14:46:06;99109.66;;;26.14;32.71
63554;BME280;49699;48.072;7.800;2022-09-12T14:48:35;99105.91;;;26.09;33.12
63554;BME280;49699;48.072;7.800;2022-09-12T14:51:02;99101.78;;;26.06;33.58
63554;BME280;49699;48.072;7.800;2022-09-12T14:53:32;99102.81;;;26.05;33.56
63554;BME280;49699;48.072;7.800;2022-09-12T14:56:11;99106.94;;;26.08;33.96
63554;BME280;49699;48.072;7.800;2022-09-12T14:58:41;99102.41;;;26.08;34.28
63554;BME280;49699;48.072;7.800;2022-09-12T15:03:34;99098.50;;;26.04;34.84
63554;BME280;49699;48.072;7.800;2022-09-12T15:06:01;99099.69;;;26.02;35.04
63554;BME280;49699;48.072;7.800;2022-09-12T15:08:28;99099.50;;;25.97;34.74
63554;BME280;49699;48.072;7.800;2022-09-12T15:10:55;99096.13;;;25.88;34.81